Time;durP1;ratioP1;P1;durP2;ratioP2;P2;SDS_P1;SDS_P2;PMS_P1;PMS_P2;Temp;Humidity;BMP_temperature;BMP_pressure;BME280_temperature;BME280_humidity;BME280_pressure;Samples;Min_cycle;Max_cycle;Signal;HPM_P1;HPM_P2
2023/08/20 00:02:03;;;;;;;6.78;3.55;;;21.30;99.90;;;;;;5076141;28;20491;-43
2023/08/20 00:04:32;;;;;;;4.05;2.65;;;21.30;99.90;;;;;;5064744;28;20082;-43
2023/08/20 00:07:04;;;;;;;5.38;2.60;;;21.30;99.90;;;;;;5073669;28;20387;-43
2023/08/20 00:09:30;;;;;;;4.88;3.05;;;21.30;99.90;;;;;;5084965;28;20027;-43
2023/08/20 00:11:56;;;;;;;5.15;2.55;;;21.20;99.90;;;;;;5080228;28;20028;-43
2023/08/20 00:14:56;;;;;;;4.75;2.70;;;21.20;99.90;;;;;;5065857;28;20035;-43
2023/08/20 00:17:24;;;;;;;5.07;2.58;;;21.30;99.90;;;;;;5075666;28;20130;-43
2023/08/20 00:20:08;;;;;;;6.35;3.25;;;21.30;99.90;;;;;;5063790;28;20496;-43
2023/08/20 00:22:34;;;;;;;8.68;3.35;;;21.30;99.90;;;;;;5076892;28;20024;-43
2023/08/20 00:25:00;;;;;;;4.78;3.15;;;21.30;99.90;;;;;;5064325;28;20428;-43
2023/08/20 00:27:25;;;;;;;6.00;3.53;;;21.30;99.90;;;;;;5073897;28;20024;-45
2023/08/20 00:29:51;;;;;;;4.35;3.22;;;21.20;99.90;;;;;;5081416;28;20550;-44
2023/08/20 00:32:16;;;;;;;4.40;2.60;;;21.20;99.90;;;;;;5077033;28;20433;-44
2023/08/20 00:34:42;;;;;;;7.57;3.20;;;21.10;99.90;;;;;;5078742;28;20582;-43
2023/08/20 00:37:08;;;;;;;4.93;2.90;;;21.10;99.90;;;;;;5078308;28;20527;-43
2023/08/20 00:39:33;;;;;;;7.35;2.42;;;21.00;99.90;;;;;;5076063;28;20491;-43
2023/08/20 00:41:59;;;;;;;3.58;2.60;;;21.00;99.90;;;;;;5079755;28;20024;-43
2023/08/20 00:44:25;;;;;;;5.22;2.90;;;21.00;99.90;;;;;;5072066;28;20506;-43
2023/08/20 00:46:51;;;;;;;6.32;2.92;;;21.00;99.90;;;;;;5081652;28;20059;-43
2023/08/20 00:49:17;;;;;;;6.13;2.72;;;21.00;99.90;;;;;;5070981;28;20035;-43
2023/08/20 00:51:43;;;;;;;5.75;2.63;;;20.90;99.90;;;;;;5083410;28;20016;-43
2023/08/20 00:54:10;;;;;;;6.95;2.70;;;20.90;99.90;;;;;;5069939;28;20488;-43
2023/08/20 00:56:36;;;;;;;3.95;2.75;;;20.90;99.90;;;;;;5082530;28;20043;-43
2023/08/20 00:59:01;;;;;;;5.38;2.50;;;20.90;99.90;;;;;;5076656;28;20031;-43
2023/08/20 01:01:27;;;;;;;6.95;2.95;;;20.90;99.90;;;;;;5063994;28;20021;-43
2023/08/20 01:03:52;;;;;;;5.88;2.97;;;20.90;99.90;;;;;;5073398;28;20115;-44
2023/08/20 01:06:50;;;;;;;5.85;2.90;;;20.80;99.90;;;;;;5063674;28;20036;-43
2023/08/20 01:09:42;;;;;;;6.10;2.95;;;20.80;99.90;;;;;;5040980;28;20044;-43
2023/08/20 01:12:13;;;;;;;6.03;3.08;;;20.70;99.90;;;;;;5073130;28;20033;-43
2023/08/20 01:14:42;;;;;;;4.55;2.92;;;20.80;99.90;;;;;;5076209;28;20570;-43
2023/08/20 01:17:07;;;;;;;4.13;2.80;;;20.80;99.90;;;;;;5061966;28;20024;-43
2023/08/20 01:19:34;;;;;;;4.45;2.65;;;20.90;99.90;;;;;;5078570;28;20597;-43
2023/08/20 01:22:22;;;;;;;3.97;2.75;;;21.00;99.90;;;;;;5078094;28;20024;-43
2023/08/20 01:25:03;;;;;;;6.40;3.08;;;21.00;99.90;;;;;;5071967;28;20052;-43
2023/08/20 01:27:32;;;;;;;4.35;2.47;;;21.10;99.90;;;;;;5067153;28;20031;-43
2023/08/20 01:29:59;;;;;;;4.93;2.65;;;21.10;99.90;;;;;;5078617;28;20497;-43
2023/08/20 01:32:28;;;;;;;5.68;2.70;;;21.10;99.90;;;;;;5067072;28;20029;-43
2023/08/20 01:34:54;;;;;;;5.38;3.00;;;21.10;99.90;;;;;;5078368;28;20016;-43
2023/08/20 01:37:20;;;;;;;5.03;2.60;;;21.10;99.90;;;;;;5073235;28;20691;-43
2023/08/20 01:39:45;;;;;;;4.25;3.00;;;21.10;99.90;;;;;;5078302;28;20064;-43
2023/08/20 01:42:11;;;;;;;4.38;2.58;;;21.20;99.90;;;;;;5079126;28;20058;-43
2023/08/20 01:44:37;;;;;;;4.63;2.60;;;21.10;99.90;;;;;;5072333;28;20430;-43
2023/08/20 01:47:02;;;;;;;5.00;2.83;;;21.10;99.90;;;;;;5072411;28;20028;-43
2023/08/20 01:49:28;;;;;;;5.53;2.80;;;21.10;99.90;;;;;;5069335;28;20033;-42
2023/08/20 01:51:54;;;;;;;5.07;2.75;;;21.00;99.90;;;;;;5073506;28;20024;-45
2023/08/20 01:54:19;;;;;;;6.22;3.13;;;21.00;99.90;;;;;;5065874;28;20663;-43
2023/08/20 01:56:46;;;;;;;3.90;2.90;;;21.00;99.90;;;;;;5077282;28;20020;-43
2023/08/20 01:59:12;;;;;;;6.60;3.05;;;20.90;99.90;;;;;;5065786;28;20054;-43
2023/08/20 02:01:39;;;;;;;4.45;2.72;;;20.90;99.90;;;;;;5078435;28;20046;-43
2023/08/20 02:04:04;;;;;;;6.50;3.28;;;20.90;99.90;;;;;;5065912;28;20469;-43
2023/08/20 02:06:30;;;;;;;4.80;3.00;;;20.90;99.90;;;;;;5078509;28;20016;-43
2023/08/20 02:08:56;;;;;;;5.63;3.17;;;20.80;99.90;;;;;;5085914;28;20081;-43
2023/08/20 02:11:35;;;;;;;7.45;3.50;;;20.80;99.90;;;;;;5075121;28;20032;-43
2023/08/20 02:14:03;;;;;;;5.03;2.92;;;20.70;99.90;;;;;;5084289;28;20477;-44
2023/08/20 02:16:29;;;;;;;6.22;3.55;;;20.70;99.90;;;;;;5072313;28;20046;-43
2023/08/20 02:18:57;;;;;;;5.28;3.22;;;20.70;99.90;;;;;;5086221;28;20047;-43
2023/08/20 02:21:23;;;;;;;4.45;3.28;;;20.60;99.90;;;;;;5074994;28;20025;-43
2023/08/20 02:23:49;;;;;;;5.72;3.33;;;20.60;99.90;;;;;;5084928;28;20024;-42
2023/08/20 02:26:15;;;;;;;6.13;3.20;;;20.60;99.90;;;;;;5079770;28;20047;-43
2023/08/20 02:28:40;;;;;;;4.57;3.28;;;20.60;99.90;;;;;;5069902;28;20024;-42
2023/08/20 02:31:06;;;;;;;5.03;3.42;;;20.50;99.90;;;;;;5070903;28;20024;-43
2023/08/20 02:33:31;;;;;;;6.38;3.50;;;20.50;99.90;;;;;;5071578;28;20039;-43
2023/08/20 02:36:03;;;;;;;4.93;3.47;;;20.40;99.90;;;;;;5068324;28;20020;-43
2023/08/20 02:38:29;;;;;;;4.32;3.08;;;20.40;99.90;;;;;;5074715;28;20028;-43
2023/08/20 02:40:58;;;;;;;5.57;3.35;;;20.40;99.90;;;;;;5079238;28;20432;-43
2023/08/20 02:43:24;;;;;;;5.15;3.42;;;20.40;99.90;;;;;;5078541;28;20029;-43
2023/08/20 02:45:49;;;;;;;6.20;3.20;;;20.30;99.90;;;;;;5076910;28;20044;-42
2023/08/20 02:48:15;;;;;;;5.72;3.40;;;20.30;99.90;;;;;;5076076;28;20132;-43
2023/08/20 02:50:41;;;;;;;5.07;2.90;;;20.30;99.90;;;;;;5068987;28;20060;-43
2023/08/20 02:53:07;;;;;;;5.13;3.30;;;20.20;99.90;;;;;;5077356;28;20020;-43
2023/08/20 02:55:35;;;;;;;6.28;3.22;;;20.30;99.90;;;;;;5065536;28;20136;-43
2023/08/20 02:58:03;;;;;;;5.10;3.90;;;20.20;99.90;;;;;;5072780;28;20571;-43
2023/08/20 03:00:29;;;;;;;5.50;3.55;;;20.10;99.90;;;;;;5077978;28;20850;-42
2023/08/20 03:02:55;;;;;;;5.57;3.42;;;20.10;99.90;;;;;;5068600;28;20025;-42
2023/08/20 03:05:21;;;;;;;4.22;3.42;;;20.00;99.90;;;;;;5071875;28;20044;-43
2023/08/20 03:07:46;;;;;;;4.30;3.38;;;20.00;99.90;;;;;;5073026;28;20097;-44
2023/08/20 03:10:12;;;;;;;4.22;3.40;;;20.00;99.90;;;;;;5075710;28;20051;-43
2023/08/20 03:12:37;;;;;;;6.22;3.78;;;19.90;99.90;;;;;;5071543;28;20449;-42
2023/08/20 03:15:06;;;;;;;5.50;3.70;;;20.00;99.90;;;;;;5073624;28;20024;-43
2023/08/20 03:17:32;;;;;;;5.70;3.45;;;20.00;99.90;;;;;;5068167;28;20016;-42
2023/08/20 03:19:59;;;;;;;4.40;3.60;;;19.90;99.90;;;;;;5071100;28;20046;-43
2023/08/20 03:22:25;;;;;;;7.22;3.60;;;19.90;99.90;;;;;;5067367;28;20400;-43
2023/08/20 03:24:57;;;;;;;4.75;3.60;;;19.90;99.90;;;;;;5078068;28;20040;-44
2023/08/20 03:27:23;;;;;;;5.53;3.42;;;19.90;99.90;;;;;;5065761;28;20024;-45
2023/08/20 03:29:48;;;;;;;4.65;3.08;;;19.80;99.90;;;;;;5074827;28;20026;-43
2023/08/20 03:32:14;;;;;;;5.07;3.50;;;19.80;99.90;;;;;;5065305;28;20024;-43
2023/08/20 03:34:40;;;;;;;6.80;3.70;;;19.80;99.90;;;;;;5075978;28;20031;-42
2023/08/20 03:37:06;;;;;;;6.18;3.58;;;19.90;99.90;;;;;;5063275;28;20400;-43
2023/08/20 03:39:32;;;;;;;5.13;3.42;;;19.80;99.90;;;;;;5077497;28;20024;-43
2023/08/20 03:41:57;;;;;;;4.90;3.33;;;19.80;99.90;;;;;;5063489;28;20389;-43
2023/08/20 03:44:23;;;;;;;7.35;4.15;;;19.80;99.90;;;;;;5075989;28;20032;-43
2023/08/20 03:46:49;;;;;;;4.30;3.65;;;19.80;99.90;;;;;;5064727;28;20020;-43
2023/08/20 03:49:15;;;;;;;6.95;3.65;;;19.80;99.90;;;;;;5073899;28;20020;-43
2023/08/20 03:51:42;;;;;;;5.38;3.50;;;19.70;99.90;;;;;;5066394;28;20029;-43
2023/08/20 03:54:08;;;;;;;5.25;3.83;;;19.70;99.90;;;;;;5071231;28;20056;-43
2023/08/20 03:56:34;;;;;;;5.50;3.72;;;19.70;99.90;;;;;;5068453;28;20043;-43
2023/08/20 03:58:59;;;;;;;5.07;3.67;;;19.70;99.90;;;;;;5068058;28;20023;-43
2023/08/20 04:01:25;;;;;;;5.53;3.58;;;19.70;99.90;;;;;;5070897;28;20082;-43
2023/08/20 04:03:51;;;;;;;5.22;3.88;;;19.60;99.90;;;;;;5066398;28;20106;-43
2023/08/20 04:06:16;;;;;;;6.63;4.18;;;19.60;99.90;;;;;;5072917;28;20070;-43
2023/08/20 04:08:42;;;;;;;6.30;4.50;;;19.60;99.90;;;;;;5081555;28;20021;-43
2023/08/20 04:11:08;;;;;;;7.40;4.70;;;19.60;99.90;;;;;;5070602;28;20024;-43
2023/08/20 04:13:33;;;;;;;7.10;4.97;;;19.50;99.90;;;;;;5064210;28;20048;-43
2023/08/20 04:15:59;;;;;;;6.63;5.45;;;19.50;99.90;;;;;;5075212;28;20776;-43
2023/08/20 04:18:25;;;;;;;8.02;5.15;;;19.50;99.90;;;;;;5064202;28;20024;-44
2023/08/20 04:20:52;;;;;;;6.45;5.38;;;19.50;99.90;;;;;;5075165;28;20496;-43
2023/08/20 04:23:18;;;;;;;5.47;4.97;;;19.50;99.90;;;;;;5063038;28;20086;-43
2023/08/20 04:25:44;;;;;;;7.18;5.60;;;19.50;99.90;;;;;;5074790;28;20399;-44
2023/08/20 04:28:11;;;;;;;9.27;5.40;;;19.50;99.90;;;;;;5063219;28;20021;-43
2023/08/20 04:30:37;;;;;;;8.98;5.75;;;19.50;99.90;;;;;;5073212;28;20115;-43
2023/08/20 04:33:06;;;;;;;8.25;5.60;;;19.50;99.90;;;;;;5065086;28;20123;-43
2023/08/20 04:35:31;;;;;;;8.15;5.47;;;19.50;99.90;;;;;;5071244;28;20423;-42
2023/08/20 04:37:57;;;;;;;7.57;5.63;;;19.50;99.90;;;;;;5082479;28;20062;-43
2023/08/20 04:40:22;;;;;;;7.00;5.60;;;19.50;99.90;;;;;;5077371;28;20079;-43
2023/08/20 04:42:49;;;;;;;9.30;5.88;;;19.50;99.90;;;;;;5077168;28;20032;-43
2023/08/20 04:45:17;;;;;;;6.53;5.25;;;19.50;99.90;;;;;;5080081;28;20048;-44
2023/08/20 04:47:43;;;;;;;7.50;5.50;;;19.40;99.90;;;;;;5074020;28;20045;-43
2023/08/20 04:50:09;;;;;;;6.78;5.20;;;19.40;99.90;;;;;;5081924;28;20055;-43
2023/08/20 04:52:37;;;;;;;7.43;5.28;;;19.40;99.90;;;;;;5073378;28;20501;-44
2023/08/20 04:55:03;;;;;;;7.43;5.45;;;19.40;99.90;;;;;;5085472;28;20047;-43
2023/08/20 04:57:29;;;;;;;8.32;5.80;;;19.40;99.90;;;;;;5079477;28;20016;-43
2023/08/20 04:59:58;;;;;;;7.78;5.70;;;19.40;99.90;;;;;;5067504;28;20033;-43
2023/08/20 05:02:23;;;;;;;8.98;6.13;;;19.40;99.90;;;;;;5078401;28;20024;-43
2023/08/20 05:04:52;;;;;;;7.25;5.57;;;19.40;99.90;;;;;;5067546;28;20041;-43
2023/08/20 05:07:18;;;;;;;7.75;5.47;;;19.40;99.90;;;;;;5078269;28;20737;-43
2023/08/20 05:09:50;;;;;;;9.10;5.15;;;19.30;99.90;;;;;;5066705;28;20695;-43
2023/08/20 05:12:15;;;;;;;6.05;4.70;;;19.20;99.90;;;;;;5070349;28;20463;-43
2023/08/20 05:14:41;;;;;;;6.75;4.88;;;19.20;99.90;;;;;;5066838;28;20024;-43
2023/08/20 05:17:06;;;;;;;6.82;5.30;;;19.20;99.90;;;;;;5069496;28;20031;-44
2023/08/20 05:19:32;;;;;;;5.55;4.78;;;19.20;99.90;;;;;;5083790;28;20024;-43
2023/08/20 05:21:58;;;;;;;6.50;4.63;;;19.20;99.90;;;;;;5078560;28;20505;-43
2023/08/20 05:24:25;;;;;;;6.63;4.60;;;19.20;99.90;;;;;;5074807;28;20036;-43
2023/08/20 05:27:14;;;;;;;5.28;4.30;;;19.20;99.90;;;;;;5082293;28;20032;-42
2023/08/20 05:29:40;;;;;;;7.18;3.92;;;19.20;99.90;;;;;;5082089;28;20024;-42
2023/08/20 05:32:09;;;;;;;6.05;4.07;;;19.30;99.90;;;;;;5080970;28;20533;-42
2023/08/20 05:34:37;;;;;;;6.32;3.83;;;19.40;99.90;;;;;;5080095;28;20131;-42
2023/08/20 05:37:03;;;;;;;8.25;4.18;;;19.40;99.90;;;;;;5080751;28;20031;-42
2023/08/20 05:39:30;;;;;;;5.20;3.60;;;19.40;99.90;;;;;;5077351;28;20019;-42
2023/08/20 05:41:56;;;;;;;5.32;3.70;;;19.50;99.90;;;;;;5084717;28;20040;-43
2023/08/20 05:44:22;;;;;;;5.20;3.33;;;19.50;99.90;;;;;;5073651;28;20116;-42
2023/08/20 05:46:47;;;;;;;6.55;3.50;;;19.50;99.90;;;;;;5083926;28;20533;-43
2023/08/20 05:49:16;;;;;;;4.85;3.15;;;19.50;99.90;;;;;;5074602;28;20024;-43
2023/08/20 05:51:43;;;;;;;4.72;2.97;;;19.60;99.90;;;;;;5085877;28;20100;-43
2023/08/20 05:54:08;;;;;;;4.70;3.15;;;19.70;99.90;;;;;;5073798;28;20043;-43
2023/08/20 05:56:34;;;;;;;5.72;2.92;;;19.70;99.90;;;;;;5087277;28;20361;-45
2023/08/20 05:58:59;;;;;;;3.47;3.08;;;19.70;99.90;;;;;;5071706;28;20487;-44
2023/08/20 06:01:25;;;;;;;4.28;3.00;;;19.80;99.90;;;;;;5087728;28;20668;-43
2023/08/20 06:03:50;;;;;;;4.85;3.22;;;19.80;99.90;;;;;;5074452;28;20461;-43
2023/08/20 06:06:16;;;;;;;5.95;3.40;;;19.90;99.90;;;;;;5083814;28;20105;-43
2023/08/20 06:08:42;;;;;;;4.53;3.60;;;19.90;99.90;;;;;;5077976;28;20123;-44
2023/08/20 06:11:07;;;;;;;4.25;3.20;;;20.00;99.90;;;;;;5081577;28;20030;-43
2023/08/20 06:13:33;;;;;;;6.18;3.90;;;20.00;99.90;;;;;;5074040;28;20053;-43
2023/08/20 06:15:58;;;;;;;5.00;3.55;;;20.00;99.90;;;;;;5079507;28;20040;-43
2023/08/20 06:18:24;;;;;;;6.47;4.28;;;20.00;99.90;;;;;;5081619;28;20082;-43
2023/08/20 06:20:50;;;;;;;5.63;3.97;;;20.00;99.90;;;;;;5077636;28;20479;-43
2023/08/20 06:23:15;;;;;;;4.65;3.65;;;20.00;99.90;;;;;;5078327;28;20158;-43
2023/08/20 06:25:41;;;;;;;4.35;3.28;;;19.90;99.90;;;;;;5078580;28;20035;-45
2023/08/20 06:28:09;;;;;;;4.85;3.65;;;20.00;99.90;;;;;;5081104;28;20036;-44
2023/08/20 06:30:41;;;;;;;5.38;3.60;;;20.00;99.90;;;;;;5072455;28;20145;-44
2023/08/20 06:33:06;;;;;;;3.88;3.47;;;20.00;99.90;;;;;;5081902;28;20570;-44
2023/08/20 06:35:32;;;;;;;4.95;3.33;;;20.00;99.90;;;;;;5068939;28;20058;-43
2023/08/20 06:37:57;;;;;;;6.20;3.80;;;20.00;99.90;;;;;;5064597;28;20475;-44
2023/08/20 06:40:30;;;;;;;5.13;3.88;;;20.00;99.90;;;;;;5077100;28;20027;-43
2023/08/20 06:42:55;;;;;;;4.35;3.22;;;20.00;99.90;;;;;;5065419;28;20075;-43
2023/08/20 06:45:21;;;;;;;4.85;3.40;;;20.00;99.90;;;;;;5075096;28;20119;-43
2023/08/20 06:47:47;;;;;;;5.20;3.38;;;20.10;99.90;;;;;;5066648;28;20078;-43
2023/08/20 06:50:12;;;;;;;6.95;3.65;;;20.10;99.90;;;;;;5074278;28;20409;-43
2023/08/20 06:52:44;;;;;;;4.82;4.18;;;20.10;99.90;;;;;;5071733;28;20040;-43
2023/08/20 06:55:19;;;;;;;5.57;3.50;;;20.10;99.90;;;;;;5078531;28;20094;-44
2023/08/20 06:57:44;;;;;;;3.45;3.05;;;20.10;99.90;;;;;;5083795;28;20030;-43
2023/08/20 07:00:10;;;;;;;3.85;2.85;;;20.10;99.90;;;;;;5076461;28;20037;-43
2023/08/20 07:02:36;;;;;;;4.38;2.88;;;20.10;99.90;;;;;;5077328;28;20028;-43
2023/08/20 07:05:01;;;;;;;4.60;2.90;;;20.20;99.90;;;;;;5079540;28;20032;-43
2023/08/20 07:07:27;;;;;;;5.53;3.17;;;20.20;99.90;;;;;;5074569;28;20094;-43
2023/08/20 07:09:52;;;;;;;4.80;2.70;;;20.20;99.90;;;;;;5082345;28;20043;-43
2023/08/20 07:12:18;;;;;;;3.45;2.40;;;20.20;99.90;;;;;;5065489;28;20021;-43
2023/08/20 07:14:44;;;;;;;2.72;2.15;;;20.20;99.90;;;;;;5065767;28;20043;-43
2023/08/20 07:17:09;;;;;;;2.63;1.90;;;20.30;99.90;;;;;;5075529;28;20071;-43
2023/08/20 07:19:36;;;;;;;3.55;2.13;;;20.30;99.90;;;;;;5065029;28;20036;-44
2023/08/20 07:22:02;;;;;;;4.18;2.22;;;20.40;99.90;;;;;;5075931;28;20023;-43
2023/08/20 07:24:29;;;;;;;3.22;2.20;;;20.40;99.90;;;;;;5065471;28;20384;-43
2023/08/20 07:27:00;;;;;;;3.45;2.30;;;20.50;99.90;;;;;;5077553;28;20043;-44
2023/08/20 07:29:26;;;;;;;5.00;2.20;;;20.50;99.90;;;;;;5064935;28;20060;-43
2023/08/20 07:31:52;;;;;;;3.60;2.38;;;20.50;99.90;;;;;;5075576;28;20111;-44
2023/08/20 07:34:18;;;;;;;4.32;2.50;;;20.50;99.90;;;;;;5063297;28;20115;-44
2023/08/20 07:36:44;;;;;;;3.90;2.10;;;20.50;99.90;;;;;;5072095;28;20020;-44
2023/08/20 07:39:09;;;;;;;3.53;1.90;;;20.60;99.90;;;;;;5066854;28;20032;-44
2023/08/20 07:41:35;;;;;;;6.85;2.28;;;20.70;99.90;;;;;;5070785;28;20976;-44
2023/08/20 07:44:01;;;;;;;3.35;2.13;;;20.70;99.90;;;;;;5068964;28;20028;-43
2023/08/20 07:46:26;;;;;;;4.63;1.90;;;20.70;99.90;;;;;;5068133;28;20085;-43
2023/08/20 07:48:52;;;;;;;5.53;2.00;;;20.80;99.90;;;;;;5073170;28;20028;-43
2023/08/20 07:51:17;;;;;;;3.45;1.85;;;20.80;99.90;;;;;;5066320;28;20020;-43
2023/08/20 07:53:43;;;;;;;6.15;1.92;;;20.80;99.90;;;;;;5075802;28;20068;-43
2023/08/20 07:56:08;;;;;;;3.90;1.50;;;20.80;99.90;;;;;;5065138;28;20021;-44
2023/08/20 07:58:34;;;;;;;4.15;2.00;;;20.90;99.90;;;;;;5075476;28;20498;-43
2023/08/20 08:01:00;;;;;;;2.72;1.58;;;20.90;99.90;;;;;;5062987;28;20047;-44
2023/08/20 08:03:26;;;;;;;3.22;1.85;;;20.90;99.90;;;;;;5071988;28;20479;-43
2023/08/20 08:05:55;;;;;;;2.35;1.33;;;20.90;99.90;;;;;;5075496;28;20032;-42
2023/08/20 08:08:21;;;;;;;3.80;1.73;;;21.00;99.90;;;;;;5076079;28;20040;-43
2023/08/20 08:10:48;;;;;;;3.53;1.60;;;21.00;99.90;;;;;;5063843;28;20506;-43
2023/08/20 08:13:14;;;;;;;3.45;1.60;;;21.00;99.90;;;;;;5075655;28;20090;-43
2023/08/20 08:15:40;;;;;;;4.97;1.50;;;21.10;99.90;;;;;;5073757;28;20106;-45
2023/08/20 08:18:07;;;;;;;4.70;1.70;;;21.10;99.90;;;;;;5072374;28;20122;-42
2023/08/20 08:20:32;;;;;;;4.15;1.17;;;21.20;99.90;;;;;;5082443;28;20028;-43
2023/08/20 08:22:58;;;;;;;1.98;1.20;;;21.20;99.90;;;;;;5073864;28;20066;-43
2023/08/20 08:25:24;;;;;;;2.95;1.10;;;21.20;99.90;;;;;;5068198;28;20234;-43
2023/08/20 08:27:49;;;;;;;2.75;1.50;;;21.20;99.90;;;;;;5065111;28;20036;-43
2023/08/20 08:30:15;;;;;;;3.08;1.30;;;21.30;99.90;;;;;;5069354;28;20023;-43
2023/08/20 08:32:41;;;;;;;2.70;1.35;;;21.30;99.90;;;;;;5075393;28;20024;-42
2023/08/20 08:35:07;;;;;;;2.83;1.42;;;21.40;99.90;;;;;;5070617;28;20101;-43
2023/08/20 08:37:32;;;;;;;2.58;1.33;;;21.40;99.90;;;;;;5067790;28;20035;-45
2023/08/20 08:39:58;;;;;;;1.65;1.20;;;21.40;99.90;;;;;;5069031;28;20044;-43
2023/08/20 08:42:27;;;;;;;5.43;1.42;;;21.50;99.90;;;;;;5081016;28;20475;-43
2023/08/20 08:44:53;;;;;;;2.67;1.20;;;21.60;99.90;;;;;;5066507;28;20044;-43
2023/08/20 08:47:20;;;;;;;4.25;1.35;;;21.60;99.90;;;;;;5080241;28;20040;-43
2023/08/20 08:49:58;;;;;;;3.20;1.23;;;21.60;99.90;;;;;;5069892;28;20151;-43
2023/08/20 08:52:25;;;;;;;3.67;1.23;;;21.70;99.90;;;;;;5073659;28;20029;-44
2023/08/20 08:54:51;;;;;;;2.65;1.20;;;21.70;99.90;;;;;;5073251;28;20088;-43
2023/08/20 08:57:17;;;;;;;3.17;1.10;;;21.80;99.90;;;;;;5082071;28;20036;-44
2023/08/20 08:59:43;;;;;;;2.45;1.25;;;21.80;99.90;;;;;;5079732;28;20016;-43
2023/08/20 09:02:10;;;;;;;3.20;0.93;;;21.90;99.90;;;;;;5063134;28;20478;-43
2023/08/20 09:04:42;;;;;;;1.65;1.00;;;21.90;99.90;;;;;;5072279;28;20031;-44
2023/08/20 09:07:13;;;;;;;4.10;1.38;;;22.00;99.90;;;;;;5065077;28;20054;-44
2023/08/20 09:09:42;;;;;;;2.35;1.23;;;22.10;99.90;;;;;;5070859;28;20012;-44
2023/08/20 09:12:16;;;;;;;3.97;1.25;;;22.10;99.90;;;;;;5071859;28;20028;-43
2023/08/20 09:14:51;;;;;;;2.08;1.10;;;22.10;99.90;;;;;;5076535;28;20032;-43
2023/08/20 09:17:20;;;;;;;3.45;1.33;;;22.10;99.90;;;;;;5078612;28;20125;-44
2023/08/20 09:19:46;;;;;;;1.92;1.00;;;22.20;99.90;;;;;;5075788;28;20567;-43
2023/08/20 09:22:12;;;;;;;3.08;1.23;;;22.20;99.90;;;;;;5076175;28;20039;-43
2023/08/20 09:24:44;;;;;;;1.50;1.00;;;22.30;99.90;;;;;;5078855;28;20593;-44
2023/08/20 09:27:11;;;;;;;1.40;0.80;;;22.30;99.90;;;;;;5074418;28;20054;-44
2023/08/20 09:29:47;;;;;;;1.45;0.90;;;22.40;99.90;;;;;;5081270;28;20555;-43
2023/08/20 09:32:21;;;;;;;2.08;1.10;;;22.50;99.90;;;;;;5073573;28;20544;-44
2023/08/20 09:34:51;;;;;;;2.45;1.00;;;22.60;99.90;;;;;;5081653;28;20167;-44
2023/08/20 09:37:19;;;;;;;2.88;1.17;;;22.60;99.90;;;;;;5072355;28;20044;-44
2023/08/20 09:39:45;;;;;;;2.50;1.00;;;22.70;99.90;;;;;;5083183;28;20035;-44
2023/08/20 09:42:11;;;;;;;1.80;0.90;;;22.70;99.90;;;;;;5067873;28;20036;-44
2023/08/20 09:44:39;;;;;;;2.22;1.10;;;22.80;99.90;;;;;;5067169;28;20102;-43
2023/08/20 09:47:10;;;;;;;1.65;0.80;;;22.80;99.90;;;;;;5077246;28;20055;-44
2023/08/20 09:49:44;;;;;;;2.03;0.88;;;22.90;99.90;;;;;;5064691;28;20090;-44
2023/08/20 09:52:11;;;;;;;2.22;0.90;;;22.90;99.90;;;;;;5073004;28;20024;-44
2023/08/20 09:54:46;;;;;;;1.60;0.80;;;22.90;99.90;;;;;;5085149;28;20051;-44
2023/08/20 09:57:20;;;;;;;1.73;0.82;;;23.00;99.90;;;;;;5071917;28;20685;-44
2023/08/20 09:59:47;;;;;;;1.90;0.77;;;23.00;99.90;;;;;;5086559;28;20125;-44
2023/08/20 10:02:17;;;;;;;2.30;0.70;;;23.10;99.90;;;;;;5072316;28;20036;-44
2023/08/20 10:04:43;;;;;;;2.55;0.80;;;23.10;99.90;;;;;;5085498;28;20047;-43
2023/08/20 10:07:10;;;;;;;0.82;0.60;;;23.20;99.90;;;;;;5072897;28;20029;-45
2023/08/20 10:09:38;;;;;;;0.65;0.50;;;23.20;99.90;;;;;;5086894;28;20034;-43
2023/08/20 10:12:04;;;;;;;1.00;0.40;;;23.30;99.90;;;;;;5076709;28;20039;-44
2023/08/20 10:14:30;;;;;;;2.05;0.50;;;23.30;99.90;;;;;;5086513;28;20024;-42
2023/08/20 10:16:56;;;;;;;0.98;0.50;;;23.30;99.90;;;;;;5077373;28;20073;-42
2023/08/20 10:19:24;;;;;;;1.88;0.80;;;23.30;99.90;;;;;;5080965;28;20020;-43
2023/08/20 10:21:52;;;;;;;1.40;0.75;;;23.30;99.90;;;;;;5079600;28;20794;-43
2023/08/20 10:24:21;;;;;;;2.05;0.77;;;23.30;99.90;;;;;;5078843;28;20119;-43
2023/08/20 10:26:48;;;;;;;1.42;0.63;;;23.40;99.90;;;;;;5081757;28;20026;-44
2023/08/20 10:29:36;;;;;;;1.85;0.68;;;23.50;99.90;;;;;;5076293;28;20717;-43
2023/08/20 10:32:04;;;;;;;1.98;0.75;;;23.50;99.90;;;;;;5079374;28;20028;-43
2023/08/20 10:34:35;;;;;;;1.25;0.50;;;23.50;99.90;;;;;;5078142;28;20073;-43
2023/08/20 10:37:12;;;;;;;0.77;0.40;;;23.60;99.90;;;;;;5081700;28;20097;-43
2023/08/20 10:39:38;;;;;;;0.77;0.43;;;23.50;99.90;;;;;;5076862;28;20074;-43
2023/08/20 10:42:15;;;;;;;1.65;0.60;;;23.60;99.90;;;;;;5083470;28;20387;-42
2023/08/20 10:45:08;;;;;;;2.22;0.82;;;23.70;99.90;;;;;;5076700;28;20036;-43
2023/08/20 10:47:48;;;;;;;1.10;0.50;;;23.80;99.90;;;;;;5077207;28;20021;-44
2023/08/20 10:50:18;;;;;;;0.77;0.50;;;23.90;99.90;;;;;;5078560;28;20491;-43
2023/08/20 10:52:55;;;;;;;2.13;0.63;;;24.00;99.90;;;;;;5079833;28;20021;-43
2023/08/20 10:55:24;;;;;;;1.40;0.50;;;24.00;99.90;;;;;;5078166;28;20515;-43
2023/08/20 10:57:57;;;;;;;1.48;0.73;;;24.10;99.90;;;;;;5080411;28;20578;-44
2023/08/20 11:00:23;;;;;;;1.63;0.80;;;24.10;99.90;;;;;;5076354;28;20116;-44
2023/08/20 11:02:49;;;;;;;1.23;0.60;;;24.20;99.90;;;;;;5081680;28;20051;-44
2023/08/20 11:05:21;;;;;;;1.25;0.50;;;24.20;99.90;;;;;;5073703;28;20374;-44
2023/08/20 11:07:48;;;;;;;2.33;0.50;;;24.30;99.90;;;;;;5082071;28;20020;-44
2023/08/20 11:10:21;;;;;;;1.13;0.60;;;24.40;99.90;;;;;;5072129;28;20035;-44
2023/08/20 11:12:47;;;;;;;1.23;0.77;;;24.40;99.90;;;;;;5076570;28;20711;-43
2023/08/20 11:15:12;;;;;;;3.20;1.02;;;24.50;99.90;;;;;;5073919;28;20103;-44
2023/08/20 11:17:43;;;;;;;2.33;0.70;;;24.60;99.90;;;;;;5063819;28;20384;-43
2023/08/20 11:20:11;;;;;;;2.10;0.60;;;24.60;99.90;;;;;;5074101;28;20549;-44
2023/08/20 11:22:38;;;;;;;0.60;0.50;;;24.70;99.90;;;;;;5076063;28;20791;-44
2023/08/20 11:25:04;;;;;;;0.93;0.50;;;24.80;99.90;;;;;;5069453;28;20760;-44
2023/08/20 11:27:30;;;;;;;2.35;0.60;;;24.80;99.90;;;;;;5084082;28;20028;-45
2023/08/20 11:29:57;;;;;;;0.82;0.50;;;24.90;99.90;;;;;;5068929;28;20094;-44
2023/08/20 11:32:26;;;;;;;2.10;0.80;;;24.90;99.90;;;;;;5084094;28;20031;-44
2023/08/20 11:34:52;;;;;;;1.60;0.60;;;25.00;99.90;;;;;;5072399;28;20035;-44
2023/08/20 11:37:22;;;;;;;1.15;0.60;;;25.00;99.90;;;;;;5082508;28;20024;-44
2023/08/20 11:39:49;;;;;;;0.88;0.60;;;25.00;99.90;;;;;;5074936;28;20024;-43
2023/08/20 11:42:18;;;;;;;3.28;0.70;;;24.90;99.90;;;;;;5079660;28;20380;-44
2023/08/20 11:44:46;;;;;;;1.35;0.60;;;24.90;99.90;;;;;;5076715;28;20047;-44
2023/08/20 11:47:18;;;;;;;1.80;0.50;;;24.90;99.40;;;;;;5079576;28;20020;-44
2023/08/20 11:49:44;;;;;;;0.93;0.70;;;24.80;99.50;;;;;;5077739;28;20063;-43
2023/08/20 11:52:13;;;;;;;2.25;0.70;;;24.90;99.60;;;;;;5077286;28;20052;-43
2023/08/20 11:54:38;;;;;;;0.75;0.40;;;24.90;99.60;;;;;;5080798;28;20046;-44
2023/08/20 11:57:05;;;;;;;2.00;0.75;;;25.00;99.70;;;;;;5074099;28;20028;-44
2023/08/20 11:59:31;;;;;;;1.10;0.50;;;25.00;99.50;;;;;;5082929;28;20357;-44
2023/08/20 12:02:00;;;;;;;1.73;0.60;;;25.10;99.40;;;;;;5071908;28;20487;-44
2023/08/20 12:04:27;;;;;;;2.55;0.60;;;25.20;99.50;;;;;;5081658;28;20755;-45
2023/08/20 12:07:16;;;;;;;2.72;0.68;;;25.20;99.00;;;;;;5070937;28;20024;-44
2023/08/20 12:09:41;;;;;;;1.17;0.60;;;25.20;98.40;;;;;;5072565;28;20032;-44
2023/08/20 12:12:10;;;;;;;1.13;0.60;;;25.10;98.50;;;;;;5068421;28;20032;-44
2023/08/20 12:14:36;;;;;;;1.48;0.60;;;25.10;98.50;;;;;;5063824;28;20058;-44
2023/08/20 12:17:04;;;;;;;2.05;0.68;;;25.20;98.30;;;;;;5073930;28;20059;-44
2023/08/20 12:19:29;;;;;;;1.65;0.70;;;25.30;98.30;;;;;;5062697;28;20460;-43
2023/08/20 12:21:55;;;;;;;1.02;0.40;;;25.40;98.40;;;;;;5076137;28;20092;-43
2023/08/20 12:24:21;;;;;;;2.40;0.55;;;25.40;98.50;;;;;;5062419;28;20064;-43
2023/08/20 12:26:47;;;;;;;2.05;0.80;;;25.40;98.40;;;;;;5075941;28;20078;-43
2023/08/20 12:29:13;;;;;;;1.48;0.50;;;25.40;98.40;;;;;;5063332;28;20112;-44
2023/08/20 12:31:40;;;;;;;2.20;0.70;;;25.50;98.30;;;;;;5072899;28;20081;-46
2023/08/20 12:34:05;;;;;;;1.90;0.80;;;25.50;98.20;;;;;;5065114;28;20024;-44
2023/08/20 12:36:31;;;;;;;3.13;0.68;;;25.60;98.10;;;;;;5071201;28;20034;-44
2023/08/20 12:38:57;;;;;;;0.68;0.50;;;25.60;97.70;;;;;;5067926;28;20036;-44
2023/08/20 12:41:23;;;;;;;2.17;0.90;;;25.70;98.10;;;;;;5067461;28;20020;-44
2023/08/20 12:43:48;;;;;;;1.33;0.63;;;25.80;97.20;;;;;;5070776;28;20031;-44
2023/08/20 12:46:14;;;;;;;1.80;0.73;;;25.80;97.40;;;;;;5064266;28;20025;-44
2023/08/20 12:48:40;;;;;;;1.10;0.60;;;25.80;97.00;;;;;;5074524;28;20020;-44
2023/08/20 12:51:06;;;;;;;1.10;0.55;;;25.90;97.10;;;;;;5081971;28;20048;-44